Time;durP1;ratioP1;P1;durP2;ratioP2;P2;SDS_P1;SDS_P2;PMS_P1;PMS_P2;Temp;Humidity;BMP_temperature;BMP_pressure;BME280_temperature;BME280_humidity;BME280_pressure;Samples;Min_cycle;Max_cycle;Signal;HPM_P1;HPM_P2
2021/03/07 00:01:07;;;;;;;145.40;58.00;;;-3.80;90.40;;;;;;5029619;28;20100;-81
2021/03/07 00:03:33;;;;;;;143.70;56.07;;;-3.80;90.20;;;;;;5012460;28;20426;-80
2021/03/07 00:05:59;;;;;;;119.10;53.00;;;-3.90;90.80;;;;;;5014281;28;20486;-80
2021/03/07 00:08:24;;;;;;;155.13;60.20;;;-4.00;91.40;;;;;;5029273;28;20483;-80
2021/03/07 00:10:50;;;;;;;126.30;55.97;;;-4.00;92.80;;;;;;5014133;28;20036;-81
2021/03/07 00:13:16;;;;;;;111.60;49.03;;;-4.00;93.70;;;;;;5029323;28;20018;-81
2021/03/07 00:15:41;;;;;;;205.88;73.93;;;-4.10;94.90;;;;;;5029229;28;20060;-80
2021/03/07 00:18:07;;;;;;;174.53;66.20;;;-4.10;94.60;;;;;;5029199;28;20450;-80
2021/03/07 00:20:34;;;;;;;144.33;54.27;;;-4.10;94.90;;;;;;5013929;28;20418;-80
2021/03/07 00:22:59;;;;;;;137.23;51.30;;;-4.10;96.00;;;;;;5012647;28;20034;-81
2021/03/07 00:25:25;;;;;;;159.07;57.33;;;-4.20;96.80;;;;;;5012445;28;20029;-81
2021/03/07 00:27:51;;;;;;;166.60;68.43;;;-4.20;97.70;;;;;;5011482;28;20022;-81
2021/03/07 00:30:18;;;;;;;202.07;73.13;;;-4.10;98.30;;;;;;5011326;28;20487;-81
2021/03/07 00:32:44;;;;;;;148.17;59.10;;;-4.10;98.40;;;;;;5011870;28;20037;-81
2021/03/07 00:35:11;;;;;;;177.67;67.70;;;-4.10;98.30;;;;;;5010114;28;20091;-80
2021/03/07 00:37:38;;;;;;;159.47;62.23;;;-4.20;97.80;;;;;;5012122;28;20033;-81
2021/03/07 00:40:06;;;;;;;146.73;55.90;;;-4.20;98.10;;;;;;5012001;28;20030;-80
2021/03/07 00:42:32;;;;;;;216.02;72.05;;;-4.20;98.40;;;;;;5013360;28;20034;-80
2021/03/07 00:44:58;;;;;;;236.47;80.63;;;-4.20;99.00;;;;;;5012877;28;20045;-80
2021/03/07 00:47:23;;;;;;;164.97;62.33;;;-4.20;98.90;;;;;;5027867;28;20364;-80
2021/03/07 00:49:49;;;;;;;127.83;53.03;;;-4.30;98.90;;;;;;5010027;28;20030;-80
2021/03/07 00:52:15;;;;;;;128.40;49.37;;;-4.30;99.30;;;;;;5026597;28;20040;-80
2021/03/07 00:54:40;;;;;;;111.47;47.80;;;-4.30;99.80;;;;;;5009539;28;20030;-81
2021/03/07 00:57:06;;;;;;;101.97;44.40;;;-4.40;99.90;;;;;;5013273;28;20029;-81
2021/03/07 00:59:32;;;;;;;111.37;46.13;;;-4.40;99.90;;;;;;5013343;28;20476;-80
2021/03/07 01:01:57;;;;;;;98.80;43.60;;;-4.40;99.90;;;;;;5013388;28;20080;-80
2021/03/07 01:04:23;;;;;;;114.50;46.87;;;-4.40;99.90;;;;;;5013299;28;20030;-80
2021/03/07 01:06:49;;;;;;;104.77;45.37;;;-4.40;99.90;;;;;;5011807;28;20206;-80
2021/03/07 01:09:15;;;;;;;99.80;45.17;;;-4.40;99.90;;;;;;5011965;28;20014;-80
2021/03/07 01:11:40;;;;;;;106.47;46.67;;;-4.30;99.90;;;;;;5013230;28;20537;-80
2021/03/07 01:14:06;;;;;;;106.37;41.23;;;-4.30;99.90;;;;;;5013243;28;20084;-80
2021/03/07 01:16:33;;;;;;;103.23;42.87;;;-4.30;99.90;;;;;;5028341;28;20406;-80
2021/03/07 01:18:59;;;;;;;107.33;43.60;;;-4.30;99.90;;;;;;5013087;28;20030;-80
2021/03/07 01:21:25;;;;;;;103.03;42.40;;;-4.30;99.90;;;;;;5011920;28;20552;-80
2021/03/07 01:23:51;;;;;;;93.23;42.47;;;-4.20;99.90;;;;;;5027897;28;20122;-80
2021/03/07 01:26:17;;;;;;;109.30;42.70;;;-4.20;99.90;;;;;;5013080;28;20022;-81
2021/03/07 01:28:43;;;;;;;104.60;43.77;;;-4.20;99.90;;;;;;5012984;28;20037;-80
2021/03/07 01:31:08;;;;;;;103.82;43.15;;;-4.20;99.90;;;;;;5013133;28;20022;-81
2021/03/07 01:33:34;;;;;;;103.27;44.03;;;-4.20;99.90;;;;;;5028462;28;20029;-81
2021/03/07 01:36:02;;;;;;;91.37;41.13;;;-4.20;99.90;;;;;;5015883;28;20499;-81
2021/03/07 01:38:30;;;;;;;127.73;48.60;;;-4.20;99.90;;;;;;5017037;28;20046;-81
2021/03/07 01:40:57;;;;;;;127.45;51.28;;;-4.20;99.90;;;;;;5032291;28;20030;-81
2021/03/07 01:43:23;;;;;;;130.82;51.42;;;-4.20;99.90;;;;;;5016897;28;20038;-81
2021/03/07 01:45:50;;;;;;;161.32;55.75;;;-4.20;99.90;;;;;;5016790;28;20018;-81
2021/03/07 01:48:17;;;;;;;175.63;60.38;;;-4.20;99.90;;;;;;5015669;28;20048;-81
2021/03/07 01:50:49;;;;;;;190.63;62.90;;;-4.20;99.90;;;;;;5031679;28;20483;-81
2021/03/07 01:53:16;;;;;;;243.38;73.07;;;-4.20;99.90;;;;;;5032061;28;20053;-81
2021/03/07 01:55:42;;;;;;;229.13;75.00;;;-4.20;99.90;;;;;;5031740;28;20073;-82
2021/03/07 01:58:27;;;;;;;199.20;69.95;;;-4.20;99.90;;;;;;5016850;28;20111;-82
2021/03/07 02:00:54;;;;;;;195.18;69.18;;;-4.20;99.90;;;;;;5016559;28;20029;-80
2021/03/07 02:03:20;;;;;;;176.20;63.80;;;-4.20;99.90;;;;;;5015314;28;20443;-80
2021/03/07 02:05:47;;;;;;;244.60;79.43;;;-4.30;99.90;;;;;;5016360;28;20026;-80
2021/03/07 02:08:15;;;;;;;303.63;93.45;;;-4.30;99.90;;;;;;5031718;28;20014;-80
2021/03/07 02:10:59;;;;;;;227.43;72.13;;;-4.30;99.90;;;;;;5016276;28;20061;-81
2021/03/07 02:13:32;;;;;;;164.83;55.70;;;-4.30;99.90;;;;;;5016437;28;20061;-81
2021/03/07 02:16:19;;;;;;;171.98;62.47;;;-4.30;99.90;;;;;;5031641;28;20502;-82
2021/03/07 02:18:49;;;;;;;128.77;49.23;;;-4.20;99.90;;;;;;5014296;28;20049;-82
2021/03/07 02:21:47;;;;;;;120.20;46.13;;;-4.20;99.90;;;;;;5015933;28;20025;-82
2021/03/07 02:24:14;;;;;;;99.47;40.93;;;-4.20;99.90;;;;;;5000691;28;20080;-81
2021/03/07 02:26:49;;;;;;;94.63;40.47;;;-4.20;99.90;;;;;;4995260;28;20123;-82
2021/03/07 02:29:17;;;;;;;113.70;43.78;;;-4.10;99.90;;;;;;4996544;28;20022;-81
2021/03/07 02:31:48;;;;;;;105.50;43.70;;;-4.20;99.70;;;;;;4996497;28;20018;-82
2021/03/07 02:34:26;;;;;;;107.45;42.03;;;-4.10;99.30;;;;;;4995142;28;20025;-81
2021/03/07 02:36:56;;;;;;;102.00;43.83;;;-4.10;99.10;;;;;;4995158;28;20018;-81
2021/03/07 02:39:25;;;;;;;187.82;60.78;;;-4.10;98.90;;;;;;4995095;28;20022;-81
2021/03/07 02:41:57;;;;;;;117.82;44.60;;;-4.10;99.30;;;;;;4996242;28;20022;-80
2021/03/07 02:44:25;;;;;;;87.47;38.95;;;-4.10;99.90;;;;;;4996202;28;20034;-81
2021/03/07 02:46:52;;;;;;;249.17;84.40;;;-4.00;99.90;;;;;;4995084;28;20037;-81
2021/03/07 02:49:18;;;;;;;268.38;90.13;;;-4.00;99.90;;;;;;4996111;28;20027;-81
2021/03/07 02:51:47;;;;;;;295.63;102.15;;;-4.00;99.90;;;;;;5004960;28;20541;-81
2021/03/07 02:54:14;;;;;;;226.30;81.60;;;-3.90;99.90;;;;;;5015704;28;20026;-80
2021/03/07 02:56:46;;;;;;;197.70;72.95;;;-3.90;99.90;;;;;;5014226;28;20503;-80
2021/03/07 02:59:14;;;;;;;126.47;47.58;;;-3.80;99.90;;;;;;5014276;28;20479;-80
2021/03/07 03:01:41;;;;;;;163.75;54.45;;;-3.80;99.90;;;;;;5014228;28;20506;-80
2021/03/07 03:04:08;;;;;;;171.52;64.25;;;-3.80;99.90;;;;;;5015456;28;20447;-80
2021/03/07 03:06:38;;;;;;;104.15;44.28;;;-3.70;99.90;;;;;;5030664;28;20447;-80
2021/03/07 03:09:06;;;;;;;97.97;35.83;;;-3.70;99.90;;;;;;5013693;28;20026;-80
2021/03/07 03:11:36;;;;;;;82.50;37.88;;;-3.70;99.90;;;;;;5015336;28;20105;-80
2021/03/07 03:14:03;;;;;;;87.85;38.80;;;-3.60;99.90;;;;;;5030522;28;20025;-80
2021/03/07 03:16:31;;;;;;;84.95;39.97;;;-3.50;99.90;;;;;;5030563;28;20022;-80
2021/03/07 03:18:58;;;;;;;87.50;39.28;;;-3.50;99.90;;;;;;5015110;28;20033;-80
2021/03/07 03:21:24;;;;;;;80.95;36.92;;;-3.50;99.90;;;;;;5014850;28;20022;-81
2021/03/07 03:23:50;;;;;;;78.00;36.53;;;-3.40;99.90;;;;;;5030168;28;20045;-80
2021/03/07 03:26:19;;;;;;;85.95;35.33;;;-3.40;99.90;;;;;;5015155;28;20487;-80
2021/03/07 03:28:45;;;;;;;79.95;36.03;;;-3.30;99.90;;;;;;5013663;28;20124;-80
2021/03/07 03:31:11;;;;;;;78.43;35.28;;;-3.30;99.90;;;;;;5030377;28;20026;-80
2021/03/07 03:33:37;;;;;;;83.63;35.65;;;-3.30;99.90;;;;;;5014967;28;20431;-81
2021/03/07 03:36:03;;;;;;;83.18;37.08;;;-3.30;99.90;;;;;;5030096;28;20475;-80
2021/03/07 03:38:43;;;;;;;75.05;36.80;;;-3.20;99.90;;;;;;5030060;28;20022;-81
2021/03/07 03:41:10;;;;;;;81.13;39.13;;;-3.20;99.90;;;;;;5013603;28;20030;-81
2021/03/07 03:43:39;;;;;;;66.45;34.55;;;-3.10;99.90;;;;;;5014365;28;20034;-80
2021/03/07 03:46:06;;;;;;;75.57;34.95;;;-3.20;99.90;;;;;;5013439;28;20053;-80
2021/03/07 03:48:38;;;;;;;76.18;33.05;;;-3.20;99.90;;;;;;5029803;28;20094;-80
2021/03/07 03:51:08;;;;;;;74.60;34.78;;;-3.10;99.90;;;;;;5029862;28;20387;-81
2021/03/07 03:53:35;;;;;;;74.82;35.17;;;-3.10;99.90;;;;;;5014483;28;20033;-80
2021/03/07 03:56:01;;;;;;;73.28;32.30;;;-3.10;99.90;;;;;;5014522;28;20033;-80
2021/03/07 03:58:31;;;;;;;72.38;31.02;;;-3.10;99.90;;;;;;5014139;28;20068;-80
2021/03/07 04:00:58;;;;;;;69.00;33.83;;;-3.10;99.90;;;;;;5029666;28;20030;-80
2021/03/07 04:03:24;;;;;;;66.35;31.13;;;-3.10;99.90;;;;;;5029500;28;20117;-80
2021/03/07 04:05:51;;;;;;;70.45;32.28;;;-3.10;99.90;;;;;;5014235;28;20069;-79
2021/03/07 04:08:21;;;;;;;63.95;31.13;;;-3.00;99.90;;;;;;5029538;28;20022;-80
2021/03/07 04:10:49;;;;;;;73.03;32.78;;;-3.00;99.90;;;;;;5012903;28;20029;-80
2021/03/07 04:13:18;;;;;;;71.90;31.10;;;-3.00;99.90;;;;;;5014061;28;20058;-80
2021/03/07 04:15:44;;;;;;;72.10;31.00;;;-3.00;99.90;;;;;;5029271;28;20152;-80
2021/03/07 04:18:14;;;;;;;64.68;29.70;;;-2.90;99.90;;;;;;5029124;28;20040;-79
2021/03/07 04:20:41;;;;;;;65.30;28.05;;;-2.90;99.90;;;;;;5013979;28;20036;-78
2021/03/07 04:23:06;;;;;;;54.92;27.17;;;-2.90;99.90;;;;;;5029210;28;20395;-78
2021/03/07 04:25:32;;;;;;;59.10;28.70;;;-2.90;99.90;;;;;;5012570;28;20018;-78
2021/03/07 04:27:58;;;;;;;62.20;28.02;;;-2.80;99.90;;;;;;5029031;28;20028;-78
2021/03/07 04:30:24;;;;;;;56.45;29.13;;;-2.80;99.90;;;;;;5012631;28;20030;-78
2021/03/07 04:32:52;;;;;;;55.80;27.02;;;-2.80;99.90;;;;;;5013600;28;20487;-79
2021/03/07 04:35:18;;;;;;;55.00;27.02;;;-2.80;99.90;;;;;;5013858;28;20089;-80
2021/03/07 04:37:44;;;;;;;59.63;28.23;;;-2.80;99.90;;;;;;5028950;28;20038;-79
2021/03/07 04:40:10;;;;;;;59.08;28.25;;;-2.80;99.90;;;;;;5013868;28;20034;-80
2021/03/07 04:42:39;;;;;;;69.93;30.23;;;-2.80;99.90;;;;;;5028662;28;20427;-79
2021/03/07 04:45:06;;;;;;;60.25;28.88;;;-2.70;99.90;;;;;;5028765;28;20180;-81
2021/03/07 04:47:32;;;;;;;57.80;29.52;;;-2.70;99.90;;;;;;5028768;28;20471;-81
2021/03/07 04:49:57;;;;;;;60.30;29.35;;;-2.70;99.70;;;;;;5013556;28;20052;-81
2021/03/07 04:52:23;;;;;;;56.08;26.65;;;-2.70;98.70;;;;;;5013562;28;20030;-81
2021/03/07 04:54:49;;;;;;;52.75;27.23;;;-2.70;98.10;;;;;;5028634;28;20024;-81
2021/03/07 04:57:14;;;;;;;64.57;27.38;;;-2.60;97.70;;;;;;5012217;28;20105;-81
2021/03/07 04:59:40;;;;;;;49.92;25.75;;;-2.70;97.00;;;;;;5013332;28;20025;-81
2021/03/07 05:02:06;;;;;;;55.00;28.70;;;-2.60;96.90;;;;;;5028599;28;20438;-81
2021/03/07 05:04:31;;;;;;;49.88;26.52;;;-2.60;97.30;;;;;;5028025;28;20446;-81
2021/03/07 05:07:00;;;;;;;48.75;25.38;;;-2.60;96.70;;;;;;5028544;28;20021;-81
2021/03/07 05:09:26;;;;;;;47.22;24.23;;;-2.60;95.80;;;;;;5012715;28;20419;-81
2021/03/07 05:11:52;;;;;;;47.55;22.35;;;-2.60;95.40;;;;;;5013297;28;20026;-81
2021/03/07 05:14:17;;;;;;;42.33;22.60;;;-2.60;94.60;;;;;;5013297;28;20092;-81
2021/03/07 05:16:43;;;;;;;41.97;23.45;;;-2.60;94.10;;;;;;5011916;28;20034;-81
2021/03/07 05:19:08;;;;;;;46.80;23.50;;;-2.60;94.70;;;;;;5011632;28;20121;-81
2021/03/07 05:21:34;;;;;;;37.50;21.17;;;-2.60;93.90;;;;;;5012886;28;20411;-81
2021/03/07 05:24:00;;;;;;;41.75;22.27;;;-2.60;94.50;;;;;;5028179;28;20049;-81
2021/03/07 05:26:27;;;;;;;44.70;23.83;;;-2.60;94.00;;;;;;5013201;28;20415;-80
2021/03/07 05:28:54;;;;;;;42.00;21.67;;;-2.50;93.50;;;;;;5028280;28;20033;-80
2021/03/07 05:31:19;;;;;;;40.58;21.48;;;-2.50;93.50;;;;;;5028295;28;20559;-80
2021/03/07 05:33:45;;;;;;;45.08;22.40;;;-2.50;93.20;;;;;;5011459;28;20041;-80
2021/03/07 05:36:10;;;;;;;39.63;20.90;;;-2.50;93.10;;;;;;5028268;28;20026;-80
2021/03/07 05:38:38;;;;;;;38.15;21.30;;;-2.50;92.20;;;;;;5011636;28;20073;-80
2021/03/07 05:41:04;;;;;;;37.65;20.42;;;-2.50;92.90;;;;;;5013049;28;20109;-80
2021/03/07 05:43:30;;;;;;;39.00;22.13;;;-2.50;93.70;;;;;;5012898;28;20117;-80
2021/03/07 05:45:56;;;;;;;35.05;20.70;;;-2.50;93.20;;;;;;5024676;28;20444;-80
2021/03/07 05:48:21;;;;;;;37.78;20.75;;;-2.50;92.10;;;;;;5011433;28;20033;-80
2021/03/07 05:50:47;;;;;;;35.17;21.23;;;-2.50;93.00;;;;;;5012396;28;20030;-81
2021/03/07 05:53:13;;;;;;;41.85;20.35;;;-2.50;93.20;;;;;;5010748;28;20022;-80
2021/03/07 05:55:39;;;;;;;39.10;21.55;;;-2.50;91.90;;;;;;5012803;28;20480;-81
2021/03/07 05:58:06;;;;;;;40.78;21.38;;;-2.50;93.00;;;;;;5012839;28;20018;-80
2021/03/07 06:00:32;;;;;;;38.90;20.88;;;-2.50;93.20;;;;;;5011449;28;20061;-80
2021/03/07 06:02:58;;;;;;;41.97;22.20;;;-2.40;92.60;;;;;;5010929;28;20054;-80
2021/03/07 06:05:24;;;;;;;42.90;22.45;;;-2.40;91.90;;;;;;5012688;28;20088;-80
2021/03/07 06:07:50;;;;;;;42.05;22.17;;;-2.40;92.20;;;;;;5027705;28;20034;-80
2021/03/07 06:10:21;;;;;;;41.55;22.13;;;-2.40;93.00;;;;;;5012442;28;20030;-81
2021/03/07 06:13:01;;;;;;;42.03;25.08;;;-2.40;92.80;;;;;;5027749;28;20116;-81
2021/03/07 06:15:27;;;;;;;37.90;22.40;;;-2.30;92.80;;;;;;5027883;28;20101;-80
2021/03/07 06:17:53;;;;;;;44.22;21.42;;;-2.30;91.40;;;;;;5012652;28;20033;-81
2021/03/07 06:20:28;;;;;;;38.83;21.08;;;-2.30;92.40;;;;;;5029318;28;20018;-81
2021/03/07 06:23:02;;;;;;;41.60;22.80;;;-2.30;92.50;;;;;;5016251;28;20022;-80
2021/03/07 06:25:29;;;;;;;39.92;20.90;;;-2.30;93.40;;;;;;5031727;28;20126;-81
2021/03/07 06:27:56;;;;;;;43.70;22.67;;;-2.30;92.90;;;;;;5031410;28;20017;-81
2021/03/07 06:30:29;;;;;;;38.45;22.83;;;-2.30;92.10;;;;;;5016127;28;20056;-80
2021/03/07 06:32:58;;;;;;;36.47;23.00;;;-2.30;91.80;;;;;;5016075;28;20018;-80
2021/03/07 06:35:32;;;;;;;43.45;25.27;;;-2.20;90.80;;;;;;5016072;28;20064;-80
2021/03/07 06:38:02;;;;;;;41.67;22.05;;;-2.20;90.50;;;;;;5015792;28;20030;-80
2021/03/07 06:40:29;;;;;;;38.70;21.65;;;-2.20;90.30;;;;;;5031084;28;20029;-80
2021/03/07 06:42:56;;;;;;;41.33;21.90;;;-2.20;90.50;;;;;;5014860;28;20379;-80
2021/03/07 06:45:22;;;;;;;41.95;23.17;;;-2.20;90.50;;;;;;5015762;28;20030;-80
2021/03/07 06:47:56;;;;;;;46.20;23.55;;;-2.10;91.20;;;;;;5030926;28;20033;-79
2021/03/07 06:50:22;;;;;;;43.95;23.20;;;-2.10;90.70;;;;;;5030952;28;20022;-79
2021/03/07 06:52:59;;;;;;;40.47;21.98;;;-2.10;90.60;;;;;;5015717;28;20132;-79
2021/03/07 06:55:43;;;;;;;44.65;22.13;;;-2.00;90.30;;;;;;5015764;28;20391;-80
2021/03/07 06:58:17;;;;;;;43.95;23.70;;;-2.00;90.20;;;;;;5015857;28;20030;-80
2021/03/07 07:00:43;;;;;;;45.08;21.52;;;-2.00;88.70;;;;;;5014185;28;20471;-79
2021/03/07 07:03:15;;;;;;;41.53;23.48;;;-2.00;88.40;;;;;;5030712;28;20021;-79
2021/03/07 07:05:58;;;;;;;45.65;23.83;;;-2.00;88.70;;;;;;5030604;28;20060;-80
2021/03/07 07:08:47;;;;;;;47.83;23.98;;;-1.90;89.00;;;;;;5030517;28;20026;-80
2021/03/07 07:11:13;;;;;;;50.28;26.80;;;-1.90;89.60;;;;;;5015265;28;20034;-80
2021/03/07 07:13:47;;;;;;;43.95;22.83;;;-1.90;89.50;;;;;;5015290;28;20099;-81
2021/03/07 07:16:14;;;;;;;48.15;22.60;;;-1.90;88.90;;;;;;5015175;28;20021;-81
2021/03/07 07:18:42;;;;;;;43.72;22.50;;;-1.90;87.80;;;;;;5030413;28;20061;-81
2021/03/07 07:21:10;;;;;;;49.22;24.38;;;-1.90;88.00;;;;;;5015292;28;20022;-81
2021/03/07 07:23:36;;;;;;;39.70;23.27;;;-1.70;88.80;;;;;;5030130;28;20426;-80
2021/03/07 07:26:03;;;;;;;43.40;23.48;;;-1.80;88.60;;;;;;5015117;28;20022;-81
2021/03/07 07:28:29;;;;;;;40.53;21.02;;;-1.70;87.70;;;;;;5015068;28;20475;-83
2021/03/07 07:31:18;;;;;;;44.38;23.55;;;-1.70;86.90;;;;;;5030081;28;20036;-81
2021/03/07 07:33:49;;;;;;;50.20;22.80;;;-1.70;86.70;;;;;;5030071;28;20030;-81
2021/03/07 07:36:29;;;;;;;49.67;24.98;;;-1.70;86.90;;;;;;5014927;28;20026;-84
2021/03/07 07:38:57;;;;;;;41.10;23.80;;;-1.60;87.60;;;;;;5029809;28;20472;-85
2021/03/07 07:41:40;;;;;;;49.10;25.15;;;-1.60;87.50;;;;;;5030127;28;20022;-82
2021/03/07 07:44:08;;;;;;;47.58;27.23;;;-1.60;88.00;;;;;;5029242;28;20037;-81
2021/03/07 07:46:53;;;;;;;52.50;27.30;;;-1.50;87.40;;;;;;5014590;28;20554;-82
2021/03/07 07:49:35;;;;;;;54.10;28.30;;;-1.50;88.10;;;;;;5013381;28;20132;-81
2021/03/07 07:52:00;;;;;;;47.45;26.33;;;-1.30;87.80;;;;;;5013398;28;20525;-81
2021/03/07 07:54:49;;;;;;;58.65;28.45;;;-1.10;85.20;;;;;;5014203;28;20026;-81
2021/03/07 07:57:33;;;;;;;53.75;23.58;;;-0.80;84.10;;;;;;5029806;28;20022;-81
2021/03/07 08:00:00;;;;;;;42.05;22.80;;;-0.60;82.40;;;;;;5013080;28;20498;-81
2021/03/07 08:02:46;;;;;;;48.10;25.42;;;-0.50;82.10;;;;;;5029610;28;20022;-81
2021/03/07 08:05:21;;;;;;;45.55;24.45;;;-0.30;80.20;;;;;;5011603;28;20552;-81
2021/03/07 08:08:00;;;;;;;40.28;22.30;;;-0.10;79.20;;;;;;5026480;28;20084;-81
2021/03/07 08:10:45;;;;;;;36.50;20.63;;;0.00;76.80;;;;;;5023904;28;20026;-81
2021/03/07 08:13:12;;;;;;;47.83;23.77;;;0.20;76.50;;;;;;5024826;28;20402;-81
2021/03/07 08:15:48;;;;;;;47.00;24.65;;;0.30;75.80;;;;;;5010924;28;20048;-80
2021/03/07 08:18:17;;;;;;;39.45;21.50;;;0.50;75.40;;;;;;5011256;28;20586;-79
2021/03/07 08:20:44;;;;;;;44.05;22.10;;;0.60;74.10;;;;;;5010004;28;20050;-79
2021/03/07 08:23:19;;;;;;;48.05;24.52;;;0.70;73.50;;;;;;5012036;28;20022;-78
2021/03/07 08:25:50;;;;;;;50.83;23.10;;;0.90;72.30;;;;;;5008620;28;20018;-78
2021/03/07 08:28:25;;;;;;;45.33;22.90;;;1.10;71.50;;;;;;5025878;28;20555;-77
2021/03/07 08:30:52;;;;;;;46.72;22.50;;;1.20;71.10;;;;;;5027516;28;20044;-77
2021/03/07 08:33:22;;;;;;;40.78;20.55;;;1.40;69.70;;;;;;5011008;28;20048;-77
2021/03/07 08:36:10;;;;;;;41.42;22.25;;;1.50;69.70;;;;;;5027043;28;20034;-76
2021/03/07 08:38:56;;;;;;;34.20;17.38;;;1.70;68.50;;;;;;5010514;28;20014;-77
2021/03/07 08:41:34;;;;;;;38.15;18.83;;;1.80;67.60;;;;;;5007637;28;20050;-76
2021/03/07 08:44:10;;;;;;;35.72;18.73;;;1.80;66.10;;;;;;5024610;28;20049;-76
2021/03/07 08:46:41;;;;;;;31.83;16.33;;;2.10;67.00;;;;;;5008269;28;20379;-78
2021/03/07 08:49:10;;;;;;;32.08;17.20;;;2.20;65.30;;;;;;5025645;28;20037;-77
2021/03/07 08:51:38;;;;;;;35.25;15.85;;;2.20;65.10;;;;;;5007957;28;20018;-78
2021/03/07 08:54:06;;;;;;;30.27;14.77;;;2.40;65.00;;;;;;5008223;28;20438;-77
2021/03/07 08:56:32;;;;;;;35.03;17.42;;;2.40;64.00;;;;;;5009465;28;20018;-78
2021/03/07 08:58:58;;;;;;;33.70;16.23;;;2.60;64.90;;;;;;5004493;28;20379;-78
2021/03/07 09:01:24;;;;;;;29.90;14.43;;;2.70;63.70;;;;;;5008475;28;20103;-78
2021/03/07 09:03:55;;;;;;;29.05;15.40;;;2.70;62.60;;;;;;5008841;28;20029;-77
2021/03/07 09:06:21;;;;;;;28.75;14.23;;;2.80;62.70;;;;;;5009213;28;20108;-77
2021/03/07 09:08:47;;;;;;;27.15;15.18;;;2.80;61.90;;;;;;5009071;28;20026;-78
2021/03/07 09:11:13;;;;;;;31.52;15.88;;;2.90;62.60;;;;;;5008647;28;20029;-78
2021/03/07 09:13:49;;;;;;;26.40;14.45;;;3.00;61.60;;;;;;5011104;28;20026;-77
2021/03/07 09:16:16;;;;;;;28.17;13.80;;;3.10;61.60;;;;;;5024929;28;20018;-77
2021/03/07 09:18:41;;;;;;;27.80;13.80;;;3.20;61.40;;;;;;5012249;28;20030;-77
2021/03/07 09:21:12;;;;;;;28.33;13.02;;;3.30;60.50;;;;;;5010944;28;20028;-79
2021/03/07 09:23:37;;;;;;;21.67;13.13;;;3.40;60.10;;;;;;5010827;28;20093;-77
2021/03/07 09:26:10;;;;;;;27.05;12.80;;;3.50;59.40;;;;;;5009675;28;20026;-78
2021/03/07 09:28:37;;;;;;;20.65;12.13;;;3.60;58.60;;;;;;5026880;28;20105;-78
2021/03/07 09:31:12;;;;;;;21.67;12.65;;;3.70;58.10;;;;;;5011805;28;20026;-78
2021/03/07 09:33:38;;;;;;;24.65;11.50;;;3.90;58.30;;;;;;5008850;28;20050;-77
2021/03/07 09:36:07;;;;;;;17.35;10.88;;;4.10;58.10;;;;;;5010960;28;20022;-78
2021/03/07 09:38:42;;;;;;;21.45;11.40;;;3.90;56.90;;;;;;5010530;28;20018;-78
2021/03/07 09:41:09;;;;;;;23.55;11.52;;;3.70;57.00;;;;;;5012060;28;20026;-77
2021/03/07 09:43:35;;;;;;;18.77;11.20;;;3.70;57.60;;;;;;5011419;28;20073;-77
2021/03/07 09:46:02;;;;;;;24.17;11.93;;;3.80;57.90;;;;;;5010193;28;20036;-78
2021/03/07 09:48:36;;;;;;;24.10;12.23;;;3.70;57.70;;;;;;5008566;28;20025;-78
2021/03/07 09:51:10;;;;;;;23.30;11.93;;;3.90;59.20;;;;;;5008474;28;20029;-77
2021/03/07 09:53:37;;;;;;;29.58;14.02;;;4.10;57.80;;;;;;5009610;28;20022;-77
2021/03/07 09:56:03;;;;;;;24.13;11.05;;;4.10;56.60;;;;;;5009729;28;20018;-77
2021/03/07 09:58:38;;;;;;;15.45;9.02;;;4.10;57.00;;;;;;5013785;28;20109;-78
2021/03/07 10:01:07;;;;;;;21.90;10.15;;;4.00;55.90;;;;;;5014276;28;20037;-77
2021/03/07 10:03:34;;;;;;;23.70;12.10;;;3.80;56.40;;;;;;5028243;28;20037;-77
2021/03/07 10:06:19;;;;;;;19.35;9.73;;;3.90;57.10;;;;;;5013497;28;20027;-76
2021/03/07 10:09:04;;;;;;;24.67;10.68;;;4.00;57.30;;;;;;5014148;28;20022;-76
2021/03/07 10:11:30;;;;;;;23.17;11.98;;;3.90;56.80;;;;;;5029605;28;20112;-76
2021/03/07 10:14:02;;;;;;;16.70;9.38;;;4.00;57.40;;;;;;5013057;28;20065;-76
2021/03/07 10:16:30;;;;;;;19.58;10.00;;;3.80;56.30;;;;;;5014472;28;20081;-76
2021/03/07 10:19:20;;;;;;;23.10;12.93;;;3.50;56.50;;;;;;5014089;28;20030;-76
2021/03/07 10:21:47;;;;;;;28.70;15.27;;;3.50;57.60;;;;;;5014983;28;20068;-76
2021/03/07 10:24:14;;;;;;;22.40;11.10;;;3.40;58.30;;;;;;5014817;28;20045;-76
2021/03/07 10:26:41;;;;;;;19.58;10.45;;;3.40;58.50;;;;;;5016041;28;20490;-77
2021/03/07 10:29:27;;;;;;;16.77;9.45;;;3.40;58.50;;;;;;5014768;28;20032;-77
2021/03/07 10:32:11;;;;;;;19.58;11.15;;;3.40;58.10;;;;;;5031166;28;20155;-77
2021/03/07 10:34:41;;;;;;;21.73;10.57;;;3.30;58.70;;;;;;5015402;28;20030;-76
2021/03/07 10:37:08;;;;;;;22.65;11.90;;;3.10;58.20;;;;;;5014601;28;20026;-77
2021/03/07 10:39:35;;;;;;;20.88;11.07;;;3.10;58.40;;;;;;5030732;28;20054;-76
2021/03/07 10:42:08;;;;;;;30.92;11.27;;;3.10;58.60;;;;;;5015661;28;20075;-77
2021/03/07 10:44:34;;;;;;;22.55;13.45;;;3.10;59.10;;;;;;5014217;28;20062;-77
2021/03/07 10:47:14;;;;;;;15.77;9.30;;;3.20;59.70;;;;;;5015547;28;20065;-77
2021/03/07 10:49:40;;;;;;;15.18;9.02;;;3.20;58.00;;;;;;5013989;28;20030;-76
2021/03/07 10:52:06;;;;;;;21.42;10.48;;;3.20;57.90;;;;;;5016146;28;20028;-77
2021/03/07 10:54:32;;;;;;;15.88;10.27;;;3.20;58.20;;;;;;5030416;28;20108;-77
2021/03/07 10:56:57;;;;;;;13.18;8.90;;;3.20;57.90;;;;;;5014058;28;20432;-77
2021/03/07 10:59:24;;;;;;;18.33;9.55;;;3.20;57.90;;;;;;5030519;28;20018;-77
2021/03/07 11:01:49;;;;;;;15.00;9.40;;;3.20;58.10;;;;;;5012559;28;20022;-78
2021/03/07 11:04:15;;;;;;;21.10;10.02;;;3.20;57.80;;;;;;5028725;28;20064;-77
2021/03/07 11:06:41;;;;;;;17.83;10.57;;;3.20;58.30;;;;;;5009319;28;20105;-78
2021/03/07 11:09:06;;;;;;;16.13;10.13;;;3.20;58.80;;;;;;5012350;28;20076;-77
2021/03/07 11:11:37;;;;;;;23.73;13.52;;;3.00;58.40;;;;;;5009269;28;20028;-77
2021/03/07 11:14:03;;;;;;;20.70;14.88;;;3.10;58.90;;;;;;5011872;28;20450;-76
2021/03/07 11:16:29;;;;;;;14.73;10.80;;;3.10;59.50;;;;;;5012355;28;20021;-76
2021/03/07 11:18:55;;;;;;;18.80;10.85;;;3.10;59.60;;;;;;5010961;28;20088;-76
2021/03/07 11:21:20;;;;;;;17.88;10.23;;;3.10;59.90;;;;;;5012018;28;20018;-77
2021/03/07 11:23:46;;;;;;;23.85;12.82;;;3.00;59.30;;;;;;5009035;28;20497;-76
2021/03/07 11:26:12;;;;;;;21.77;12.55;;;3.00;59.70;;;;;;5012536;28;20105;-76
2021/03/07 11:28:37;;;;;;;21.90;10.73;;;3.10;60.20;;;;;;5010625;28;20018;-76
2021/03/07 11:31:03;;;;;;;35.92;17.83;;;3.10;60.80;;;;;;5011882;28;20056;-77
2021/03/07 11:33:29;;;;;;;19.80;8.82;;;3.00;59.70;;;;;;5011235;28;20057;-77
2021/03/07 11:35:54;;;;;;;38.85;19.05;;;3.00;59.50;;;;;;5013096;28;20034;-77
2021/03/07 11:38:20;;;;;;;25.13;11.95;;;3.10;59.90;;;;;;5011673;28;20026;-77
2021/03/07 11:40:46;;;;;;;30.35;14.45;;;3.00;59.10;;;;;;5011552;28;20107;-76
2021/03/07 11:43:11;;;;;;;62.30;26.17;;;3.10;59.70;;;;;;5012660;28;20014;-77
2021/03/07 11:45:37;;;;;;;19.50;10.55;;;3.20;59.30;;;;;;5011531;28;20034;-76
2021/03/07 11:48:03;;;;;;;15.40;8.27;;;3.20;59.50;;;;;;5012758;28;20416;-77
2021/03/07 11:50:28;;;;;;;22.98;12.10;;;3.20;58.60;;;;;;5009367;28;20057;-77
2021/03/07 11:52:54;;;;;;;27.73;11.65;;;3.20;58.80;;;;;;5010838;28;20029;-77
2021/03/07 11:55:20;;;;;;;40.47;16.58;;;3.10;58.30;;;;;;5008501;28;20476;-76
2021/03/07 11:57:45;;;;;;;27.00;14.18;;;3.10;59.10;;;;;;5025802;28;20033;-76
2021/03/07 12:00:12;;;;;;;16.70;8.52;;;3.20;59.20;;;;;;5009713;28;20029;-76
2021/03/07 12:02:37;;;;;;;22.98;11.00;;;3.20;59.10;;;;;;5010625;28;20034;-76
2021/03/07 12:05:05;;;;;;;11.95;6.20;;;3.20;58.80;;;;;;5011795;28;20376;-77
2021/03/07 12:07:30;;;;;;;11.32;6.35;;;3.10;58.70;;;;;;5028098;28;20022;-77
2021/03/07 12:09:56;;;;;;;10.27;6.88;;;3.00;58.60;;;;;;5027048;28;20075;-76
2021/03/07 12:12:22;;;;;;;35.88;16.15;;;3.00;58.90;;;;;;5010348;28;20110;-77
2021/03/07 12:14:47;;;;;;;21.13;10.15;;;3.10;59.70;;;;;;5010030;28;20509;-75
2021/03/07 12:17:13;;;;;;;12.05;7.00;;;3.20;59.30;;;;;;5010422;28;20533;-76
2021/03/07 12:19:39;;;;;;;9.57;6.85;;;3.10;58.60;;;;;;5010729;28;20026;-76
2021/03/07 12:22:04;;;;;;;35.70;16.02;;;3.10;58.50;;;;;;5010698;28;20022;-77
2021/03/07 12:24:30;;;;;;;21.58;11.10;;;3.30;59.20;;;;;;5008592;28;20046;-77
2021/03/07 12:27:04;;;;;;;23.70;11.63;;;3.40;59.40;;;;;;5006814;28;20025;-76
2021/03/07 12:29:34;;;;;;;11.43;7.32;;;3.40;58.40;;;;;;5007487;28;20092;-76
2021/03/07 12:32:00;;;;;;;31.85;15.15;;;3.50;58.30;;;;;;5025121;28;20029;-77
2021/03/07 12:34:26;;;;;;;10.75;6.32;;;3.70;58.20;;;;;;5012236;28;20446;-77
2021/03/07 12:36:52;;;;;;;14.30;8.07;;;3.70;57.40;;;;;;5027313;28;20018;-77